Mariq — SVA2152 — position and weather

sailwx.info

Track history (hours):
 
Tides and Currents Weather Stations Pressure Air Temp Water Temp Dewpoint Dewpoint Depression Visibility Wind Speed Wind Dir Waves Ship Positions

Mariq

Last reported at 2014-Aug-22 15:09 UTC. Time now 2014-Aug-23 05:32 UTC.
Position N 37°04' E 027°03'.

Length 57 m.

Type: Tanker. MMSI: 239758424.

Date/timePositionNaut miles runAvg speedWind from/ knotsBaromVisibWave heightAir tempDewpointWater temp
2014-Aug-22 15:09N 37°04' E 027°03'19 3.8
2014-Aug-22 10:07N 37°18' E 026°46'0 0.0
2014-Aug-22 09:23N 37°18' E 026°46'0 0.0
2014-Aug-22 08:33N 37°18' E 026°46'0 0.0
2014-Aug-22 07:33N 37°18' E 026°46'0 0.0
2014-Aug-22 06:26N 37°18' E 026°46'0 0.0
2014-Aug-22 05:32N 37°18' E 026°46'1 0.2
2014-Aug-22 01:09N 37°17' E 026°45'6 9.5
2014-Aug-22 00:33N 37°19' E 026°38'4 3.7
2014-Aug-21 23:26N 37°19' E 026°33'16 1.8
2014-Aug-21 14:30N 37°13' E 026°51'12 8.7
2014-Aug-21 13:07N 37°04' E 027°02'24 8.0
2014-Aug-21 10:06N 36°46' E 027°21'6 8.9
2014-Aug-21 09:29N 36°40' E 027°21'  
2014-Aug-18 15:31N 36°57' E 026°06'7 7.1
2014-Aug-18 14:33N 36°56' E 025°57'2 1.7
2014-Aug-18 13:32N 36°54' E 025°59'0 0.0
2014-Aug-18 12:33N 36°54' E 025°59'0 0.0
2014-Aug-18 11:33N 36°54' E 025°59'0 0.0
2014-Aug-18 10:33N 36°54' E 025°59'0 0.0
2014-Aug-18 09:33N 36°54' E 025°59'0 0.0
2014-Aug-18 08:33N 36°54' E 025°59'0 0.0
2014-Aug-18 07:33N 36°54' E 025°59'4 1.3
2014-Aug-18 04:33N 36°56' E 025°54'9 9.5
2014-Aug-18 03:33N 37°04' E 025°48'2 0.6
2014-Aug-18 00:15N 37°06' E 025°48'17 3.0
2014-Aug-17 18:33N 37°14' E 025°29'9 8.8
2014-Aug-17 17:33N 37°16' E 025°18'9 8.8
2014-Aug-17 16:33N 37°18' E 025°07'9 8.9
2014-Aug-17 15:33N 37°20' E 024°56'9 9.0
2014-Aug-17 14:33N 37°23' E 024°46'10 8.8
2014-Aug-17 13:28N 37°27' E 024°35'8 8.4
2014-Aug-17 12:33N 37°30' E 024°26'15 1.2
2014-Aug-16 23:33N 37°35' E 024°07'12 9.1
2014-Aug-16 22:14N 37°24' E 024°13'710.1
2014-Aug-16 21:33N 37°18' E 024°17'1010.0
2014-Aug-16 20:33N 37°09' E 024°23'1010.1
2014-Aug-16 19:33N 37°00' E 024°29'1010.2
2014-Aug-16 18:33N 36°51' E 024°35'4 0.7
2014-Aug-16 12:32N 36°47' E 024°35'0 0.0
2014-Aug-16 11:33N 36°47' E 024°35'0 0.0
2014-Aug-16 10:31N 36°47' E 024°35'0 0.0
2014-Aug-16 09:28N 36°47' E 024°35'0 0.0
2014-Aug-16 08:29N 36°47' E 024°35'0 0.0
2014-Aug-16 05:13N 36°47' E 024°35'0 0.0
2014-Aug-16 04:20N 36°47' E 024°35'0 0.0
2014-Aug-16 03:31N 36°47' E 024°35'0 0.0
2014-Aug-16 02:32N 36°47' E 024°35'0 0.2
2014-Aug-16 01:12N 36°47' E 024°35'5 7.0
2014-Aug-16 00:33N 36°51' E 024°36'9 9.1
2014-Aug-15 23:32N 36°59' E 024°30'9 9.1
2014-Aug-15 22:32N 37°07' E 024°24'11 8.9
2014-Aug-15 21:19N 37°17' E 024°17'7 8.7
2014-Aug-15 20:33N 37°23' E 024°14'14 1.1
2014-Aug-15 07:18N 37°36' E 024°09'17 9.5
2014-Aug-15 05:33N 37°30' E 024°28'1110.7
2014-Aug-15 04:31N 37°26' E 024°41'1010.1
2014-Aug-15 03:33N 37°21' E 024°52'10 9.8
2014-Aug-15 02:33N 37°21' E 025°04'10 9.8
2014-Aug-15 01:33N 37°21' E 025°17'10 9.6
2014-Aug-15 00:33N 37°21' E 025°29'10 9.5
2014-Aug-14 23:33N 37°21' E 025°41'9 9.5
2014-Aug-14 22:33N 37°22' E 025°52'10 9.6
2014-Aug-14 21:33N 37°23' E 026°04'1010.1
2014-Aug-14 20:33N 37°23' E 026°17'1010.0
2014-Aug-14 19:33N 37°24' E 026°30'10 9.9
2014-Aug-14 18:33N 37°23' E 026°42'5 0.9
2014-Aug-14 12:33N 37°18' E 026°43'2 2.5
2014-Aug-14 11:33N 37°18' E 026°46'0 0.0
2014-Aug-14 10:32N 37°18' E 026°46'0 0.0
2014-Aug-14 09:33N 37°18' E 026°46'0 0.0
2014-Aug-14 08:31N 37°18' E 026°46'0 0.0
2014-Aug-14 07:33N 37°18' E 026°46'0 0.0
2014-Aug-14 06:28N 37°18' E 026°46'0 0.0
2014-Aug-14 04:27N 37°18' E 026°46'0 0.0
2014-Aug-14 03:33N 37°18' E 026°46'0 0.0
2014-Aug-14 02:13N 37°18' E 026°46'0 0.1
2014-Aug-14 01:27N 37°18' E 026°46'4 4.5
2014-Aug-14 00:33N 37°18' E 026°51'10 9.5
2014-Aug-13 23:33N 37°26' E 026°58'13 1.2
2014-Aug-13 12:31N 37°14' E 027°03'8 8.5
2014-Aug-13 11:33N 37°06' E 027°06'33 8.1
2014-Aug-13 07:31N 36°38' E 027°28'9 9.1
2014-Aug-13 06:33N 36°35' E 027°38'10 9.0
2014-Aug-13 05:27N 36°31' E 027°49'  
Track history (hours):
 
Tides and Currents Weather Stations Pressure Air Temp Water Temp Dewpoint Dewpoint Depression Visibility Wind Speed Wind Dir Waves Ship Positions

Mariq

Last reported at 2014-Aug-22 15:09 UTC. Time now 2014-Aug-23 05:32 UTC.
Position N 37°04' E 027°03'.

Length 57 m.

Type: Tanker. MMSI: 239758424.

Date/timePositionNaut miles runAvg speedWind from/ knotsBaromVisibWave heightAir tempDewpointWater temp
2014-Aug-22 15:09N 37°04' E 027°03'19 3.8
2014-Aug-22 10:07N 37°18' E 026°46'0 0.0
2014-Aug-22 09:23N 37°18' E 026°46'0 0.0
2014-Aug-22 08:33N 37°18' E 026°46'0 0.0
2014-Aug-22 07:33N 37°18' E 026°46'0 0.0
2014-Aug-22 06:26N 37°18' E 026°46'0 0.0
2014-Aug-22 05:32N 37°18' E 026°46'1 0.2
2014-Aug-22 01:09N 37°17' E 026°45'6 9.5
2014-Aug-22 00:33N 37°19' E 026°38'4 3.7
2014-Aug-21 23:26N 37°19' E 026°33'16 1.8
2014-Aug-21 14:30N 37°13' E 026°51'12 8.7
2014-Aug-21 13:07N 37°04' E 027°02'24 8.0
2014-Aug-21 10:06N 36°46' E 027°21'6 8.9
2014-Aug-21 09:29N 36°40' E 027°21'  
2014-Aug-18 15:31N 36°57' E 026°06'7 7.1
2014-Aug-18 14:33N 36°56' E 025°57'2 1.7
2014-Aug-18 13:32N 36°54' E 025°59'0 0.0
2014-Aug-18 12:33N 36°54' E 025°59'0 0.0
2014-Aug-18 11:33N 36°54' E 025°59'0 0.0
2014-Aug-18 10:33N 36°54' E 025°59'0 0.0
2014-Aug-18 09:33N 36°54' E 025°59'0 0.0
2014-Aug-18 08:33N 36°54' E 025°59'0 0.0
2014-Aug-18 07:33N 36°54' E 025°59'4 1.3
2014-Aug-18 04:33N 36°56' E 025°54'9 9.5
2014-Aug-18 03:33N 37°04' E 025°48'2 0.6
2014-Aug-18 00:15N 37°06' E 025°48'17 3.0
2014-Aug-17 18:33N 37°14' E 025°29'9 8.8
2014-Aug-17 17:33N 37°16' E 025°18'9 8.8
2014-Aug-17 16:33N 37°18' E 025°07'9 8.9
2014-Aug-17 15:33N 37°20' E 024°56'9 9.0
2014-Aug-17 14:33N 37°23' E 024°46'10 8.8
2014-Aug-17 13:28N 37°27' E 024°35'8 8.4
2014-Aug-17 12:33N 37°30' E 024°26'15 1.2
2014-Aug-16 23:33N 37°35' E 024°07'12 9.1
2014-Aug-16 22:14N 37°24' E 024°13'710.1
2014-Aug-16 21:33N 37°18' E 024°17'1010.0
2014-Aug-16 20:33N 37°09' E 024°23'1010.1
2014-Aug-16 19:33N 37°00' E 024°29'1010.2
2014-Aug-16 18:33N 36°51' E 024°35'4 0.7
2014-Aug-16 12:32N 36°47' E 024°35'0 0.0
2014-Aug-16 11:33N 36°47' E 024°35'0 0.0
2014-Aug-16 10:31N 36°47' E 024°35'0 0.0
2014-Aug-16 09:28N 36°47' E 024°35'0 0.0
2014-Aug-16 08:29N 36°47' E 024°35'0 0.0
2014-Aug-16 05:13N 36°47' E 024°35'0 0.0
2014-Aug-16 04:20N 36°47' E 024°35'0 0.0
2014-Aug-16 03:31N 36°47' E 024°35'0 0.0
2014-Aug-16 02:32N 36°47' E 024°35'0 0.2
2014-Aug-16 01:12N 36°47' E 024°35'5 7.0
2014-Aug-16 00:33N 36°51' E 024°36'9 9.1
2014-Aug-15 23:32N 36°59' E 024°30'9 9.1
2014-Aug-15 22:32N 37°07' E 024°24'11 8.9
2014-Aug-15 21:19N 37°17' E 024°17'7 8.7
2014-Aug-15 20:33N 37°23' E 024°14'14 1.1
2014-Aug-15 07:18N 37°36' E 024°09'17 9.5
2014-Aug-15 05:33N 37°30' E 024°28'1110.7
2014-Aug-15 04:31N 37°26' E 024°41'1010.1
2014-Aug-15 03:33N 37°21' E 024°52'10 9.8
2014-Aug-15 02:33N 37°21' E 025°04'10 9.8
2014-Aug-15 01:33N 37°21' E 025°17'10 9.6
2014-Aug-15 00:33N 37°21' E 025°29'10 9.5
2014-Aug-14 23:33N 37°21' E 025°41'9 9.5
2014-Aug-14 22:33N 37°22' E 025°52'10 9.6
2014-Aug-14 21:33N 37°23' E 026°04'1010.1
2014-Aug-14 20:33N 37°23' E 026°17'1010.0
2014-Aug-14 19:33N 37°24' E 026°30'10 9.9
2014-Aug-14 18:33N 37°23' E 026°42'5 0.9
2014-Aug-14 12:33N 37°18' E 026°43'2 2.5
2014-Aug-14 11:33N 37°18' E 026°46'0 0.0
2014-Aug-14 10:32N 37°18' E 026°46'0 0.0
2014-Aug-14 09:33N 37°18' E 026°46'0 0.0
2014-Aug-14 08:31N 37°18' E 026°46'0 0.0
2014-Aug-14 07:33N 37°18' E 026°46'0 0.0
2014-Aug-14 06:28N 37°18' E 026°46'0 0.0
2014-Aug-14 04:27N 37°18' E 026°46'0 0.0
2014-Aug-14 03:33N 37°18' E 026°46'0 0.0
2014-Aug-14 02:13N 37°18' E 026°46'0 0.1
2014-Aug-14 01:27N 37°18' E 026°46'4 4.5
2014-Aug-14 00:33N 37°18' E 026°51'10 9.5
2014-Aug-13 23:33N 37°26' E 026°58'13 1.2
2014-Aug-13 12:31N 37°14' E 027°03'8 8.5
2014-Aug-13 11:33N 37°06' E 027°06'33 8.1
2014-Aug-13 07:31N 36°38' E 027°28'9 9.1
2014-Aug-13 06:33N 36°35' E 027°38'10 9.0
2014-Aug-13 05:27N 36°31' E 027°49'  

Dump ship's entire track history